sensor_id;sensor_type;location;lat;lon;timestamp;pressure;altitude;pressure_sealevel;temperature;humidity
55317;BME280;41178;48.956;8.130;2023-03-16T00:03:43;100064.22;;;4.75;50.83
55317;BME280;41178;48.956;8.130;2023-03-16T00:08:44;100059.59;;;4.87;50.59
55317;BME280;41178;48.956;8.130;2023-03-16T00:13:47;100069.78;;;5.11;49.26
55317;BME280;41178;48.956;8.130;2023-03-16T00:18:48;100078.13;;;5.26;48.88
55317;BME280;41178;48.956;8.130;2023-03-16T00:23:50;100087.97;;;4.97;49.30
55317;BME280;41178;48.956;8.130;2023-03-16T00:28:53;100042.69;;;5.18;48.97
55317;BME280;41178;48.956;8.130;2023-03-16T00:33:55;100065.19;;;4.65;49.39
55317;BME280;41178;48.956;8.130;2023-03-16T00:38:57;100078.31;;;4.06;49.83
55317;BME280;41178;48.956;8.130;2023-03-16T00:43:58;100081.91;;;3.95;49.59
55317;BME280;41178;48.956;8.130;2023-03-16T00:49:00;100037.84;;;4.93;48.29
55317;BME280;41178;48.956;8.130;2023-03-16T00:54:03;100050.00;;;4.67;48.39
55317;BME280;41178;48.956;8.130;2023-03-16T00:59:06;100051.88;;;4.26;49.30
55317;BME280;41178;48.956;8.130;2023-03-16T01:04:09;100049.63;;;4.21;49.52
55317;BME280;41178;48.956;8.130;2023-03-16T01:09:11;100003.16;;;5.24;48.12
55317;BME280;41178;48.956;8.130;2023-03-16T01:14:15;100061.72;;;5.03;47.94
55317;BME280;41178;48.956;8.130;2023-03-16T01:19:17;100070.28;;;7.01;44.31
55317;BME280;41178;48.956;8.130;2023-03-16T01:24:19;100082.97;;;8.28;41.82
55317;BME280;41178;48.956;8.130;2023-03-16T01:29:20;100141.75;;;7.58;42.36
55317;BME280;41178;48.956;8.130;2023-03-16T01:34:22;100163.78;;;6.05;45.03
55317;BME280;41178;48.956;8.130;2023-03-16T01:39:24;100113.03;;;5.98;45.88
55317;BME280;41178;48.956;8.130;2023-03-16T01:44:26;100133.22;;;6.92;43.43
55317;BME280;41178;48.956;8.130;2023-03-16T01:49:34;100134.81;;;5.35;46.73
55317;BME280;41178;48.956;8.130;2023-03-16T01:54:57;100135.28;;;4.91;47.51
55317;BME280;41178;48.956;8.130;2023-03-16T02:00:11;100138.78;;;4.32;48.62
55317;BME280;41178;48.956;8.130;2023-03-16T02:05:37;100080.81;;;4.77;48.97
55317;BME280;41178;48.956;8.130;2023-03-16T02:10:42;100121.84;;;4.23;48.94
55317;BME280;41178;48.956;8.130;2023-03-16T02:15:45;100089.91;;;4.75;48.43
55317;BME280;41178;48.956;8.130;2023-03-16T02:21:18;100092.25;;;4.58;47.81
55317;BME280;41178;48.956;8.130;2023-03-16T02:26:40;100117.09;;;3.55;50.01
55317;BME280;41178;48.956;8.130;2023-03-16T02:31:46;100092.06;;;4.00;49.45
55317;BME280;41178;48.956;8.130;2023-03-16T02:36:49;100025.19;;;5.25;47.68
55317;BME280;41178;48.956;8.130;2023-03-16T02:41:52;100055.28;;;4.37;48.88
55317;BME280;41178;48.956;8.130;2023-03-16T02:46:57;100046.28;;;5.83;46.11
55317;BME280;41178;48.956;8.130;2023-03-16T02:52:00;100096.25;;;4.33;48.45
55317;BME280;41178;48.956;8.130;2023-03-16T02:57:02;100026.13;;;4.57;48.79
55317;BME280;41178;48.956;8.130;2023-03-16T03:02:04;100045.44;;;4.28;49.19
55317;BME280;41178;48.956;8.130;2023-03-16T03:07:06;100057.09;;;5.05;47.16
55317;BME280;41178;48.956;8.130;2023-03-16T03:12:09;99981.09;;;6.97;44.92
55317;BME280;41178;48.956;8.130;2023-03-16T03:17:11;100029.03;;;6.79;44.42
55317;BME280;41178;48.956;8.130;2023-03-16T03:22:13;100100.44;;;5.63;45.75
55317;BME280;41178;48.956;8.130;2023-03-16T03:27:19;100106.03;;;4.52;46.32
55317;BME280;41178;48.956;8.130;2023-03-16T03:32:23;100113.47;;;4.88;46.80
55317;BME280;41178;48.956;8.130;2023-03-16T03:37:25;100099.22;;;5.28;46.31
55317;BME280;41178;48.956;8.130;2023-03-16T03:42:26;100084.63;;;4.25;48.85
55317;BME280;41178;48.956;8.130;2023-03-16T03:47:28;100082.81;;;4.15;48.93
55317;BME280;41178;48.956;8.130;2023-03-16T03:52:29;100088.81;;;3.87;48.77
55317;BME280;41178;48.956;8.130;2023-03-16T03:57:31;100096.50;;;3.38;49.06
55317;BME280;41178;48.956;8.130;2023-03-16T04:02:33;100085.63;;;3.93;48.44
55317;BME280;41178;48.956;8.130;2023-03-16T04:07:35;100086.00;;;3.26;49.50
55317;BME280;41178;48.956;8.130;2023-03-16T04:12:37;100084.44;;;2.70;51.26
55317;BME280;41178;48.956;8.130;2023-03-16T04:17:39;100068.31;;;2.73;51.21
55317;BME280;41178;48.956;8.130;2023-03-16T04:22:41;100056.13;;;2.50;51.72
55317;BME280;41178;48.956;8.130;2023-03-16T04:27:43;100063.91;;;2.08;52.66
55317;BME280;41178;48.956;8.130;2023-03-16T04:32:47;100021.13;;;2.69;51.75
55317;BME280;41178;48.956;8.130;2023-03-16T04:37:49;100013.28;;;2.46;52.39
55317;BME280;41178;48.956;8.130;2023-03-16T04:42:51;100011.69;;;2.87;50.99
55317;BME280;41178;48.956;8.130;2023-03-16T04:47:53;100003.97;;;2.96;51.18
55317;BME280;41178;48.956;8.130;2023-03-16T04:52:54;100053.16;;;1.77;53.29
55317;BME280;41178;48.956;8.130;2023-03-16T04:57:56;100008.69;;;2.27;52.44
55317;BME280;41178;48.956;8.130;2023-03-16T05:05:32;100021.63;;;-0.65;59.56
55317;BME280;41178;48.956;8.130;2023-03-16T05:10:35;100010.59;;;-0.57;59.35
55317;BME280;41178;48.956;8.130;2023-03-16T05:15:37;99950.63;;;-0.02;58.29
55317;BME280;41178;48.956;8.130;2023-03-16T05:20:39;100000.00;;;-0.06;57.90
55317;BME280;41178;48.956;8.130;2023-03-16T05:25:41;99919.69;;;1.06;56.01
55317;BME280;41178;48.956;8.130;2023-03-16T05:30:44;100013.31;;;0.77;55.22
55317;BME280;41178;48.956;8.130;2023-03-16T05:35:46;99970.25;;;1.00;55.34
55317;BME280;41178;48.956;8.130;2023-03-16T05:40:48;99979.34;;;0.96;55.17
55317;BME280;41178;48.956;8.130;2023-03-16T05:45:53;99972.66;;;1.15;54.62
55317;BME280;41178;48.956;8.130;2023-03-16T05:50:56;99907.22;;;1.65;54.59
55317;BME280;41178;48.956;8.130;2023-03-16T05:55:57;99973.44;;;1.51;53.65
55317;BME280;41178;48.956;8.130;2023-03-16T06:00:59;99935.94;;;1.91;53.13
55317;BME280;41178;48.956;8.130;2023-03-16T06:06:02;100057.50;;;0.84;54.68
55317;BME280;41178;48.956;8.130;2023-03-16T06:11:04;99983.25;;;1.60;53.60
55317;BME280;41178;48.956;8.130;2023-03-16T06:16:06;99953.38;;;2.68;51.58
55317;BME280;41178;48.956;8.130;2023-03-16T06:21:08;100097.97;;;1.08;54.27
55317;BME280;41178;48.956;8.130;2023-03-16T06:26:10;99997.50;;;1.69;54.29
55317;BME280;41178;48.956;8.130;2023-03-16T06:31:12;99972.97;;;2.01;53.56
55317;BME280;41178;48.956;8.130;2023-03-16T06:36:14;100030.22;;;1.43;54.36
55317;BME280;41178;48.956;8.130;2023-03-16T06:41:16;100080.63;;;0.81;55.88
55317;BME280;41178;48.956;8.130;2023-03-16T06:46:17;99987.81;;;1.47;55.23
55317;BME280;41178;48.956;8.130;2023-03-16T06:51:19;99968.06;;;1.96;54.23
55317;BME280;41178;48.956;8.130;2023-03-16T06:56:21;100000.16;;;1.57;55.14
55317;BME280;41178;48.956;8.130;2023-03-16T07:01:23;100018.84;;;1.77;53.86
55317;BME280;41178;48.956;8.130;2023-03-16T07:06:24;100031.03;;;2.12;53.75
55317;BME280;41178;48.956;8.130;2023-03-16T07:11:26;100060.22;;;1.76;54.64
55317;BME280;41178;48.956;8.130;2023-03-16T07:16:28;99991.94;;;2.70;53.06
55317;BME280;41178;48.956;8.130;2023-03-16T07:21:30;100017.66;;;2.36;53.84
55317;BME280;41178;48.956;8.130;2023-03-16T07:26:39;100014.31;;;2.87;53.24
55317;BME280;41178;48.956;8.130;2023-03-16T07:31:41;100060.25;;;3.28;51.85
55317;BME280;41178;48.956;8.130;2023-03-16T07:36:43;100028.47;;;4.31;50.30
55317;BME280;41178;48.956;8.130;2023-03-16T07:41:45;100090.00;;;4.03;50.90
55317;BME280;41178;48.956;8.130;2023-03-16T07:46:47;100034.50;;;6.14;47.90
55317;BME280;41178;48.956;8.130;2023-03-16T07:51:48;100083.38;;;5.56;49.46
55317;BME280;41178;48.956;8.130;2023-03-16T07:56:50;100193.78;;;3.67;51.93
55317;BME280;41178;48.956;8.130;2023-03-16T08:01:52;100136.59;;;4.47;50.83
55317;BME280;41178;48.956;8.130;2023-03-16T08:06:53;100087.09;;;5.06;50.99
55317;BME280;41178;48.956;8.130;2023-03-16T08:12:02;100138.03;;;4.30;51.91
55317;BME280;41178;48.956;8.130;2023-03-16T08:17:05;100095.78;;;4.88;51.76
55317;BME280;41178;48.956;8.130;2023-03-16T08:22:10;100142.50;;;4.29;52.59
55317;BME280;41178;48.956;8.130;2023-03-16T08:27:12;100163.81;;;3.87;54.00
55317;BME280;41178;48.956;8.130;2023-03-16T08:32:16;100103.47;;;5.78;49.66
55317;BME280;41178;48.956;8.130;2023-03-16T08:37:18;100144.31;;;5.38;50.63
55317;BME280;41178;48.956;8.130;2023-03-16T08:42:20;100208.19;;;4.56;50.68
55317;BME280;41178;48.956;8.130;2023-03-16T08:47:22;100135.31;;;5.87;49.49
55317;BME280;41178;48.956;8.130;2023-03-16T08:52:25;100141.09;;;6.38;48.48
55317;BME280;41178;48.956;8.130;2023-03-16T08:57:26;100108.19;;;8.34;46.00
55317;BME280;41178;48.956;8.130;2023-03-16T09:02:28;100113.88;;;8.05;46.57
55317;BME280;41178;48.956;8.130;2023-03-16T09:07:30;100186.00;;;6.69;46.84
55317;BME280;41178;48.956;8.130;2023-03-16T09:12:36;100157.34;;;7.97;45.76
55317;BME280;41178;48.956;8.130;2023-03-16T09:17:38;100139.91;;;8.11;46.40
55317;BME280;41178;48.956;8.130;2023-03-16T09:22:42;100194.16;;;7.58;46.88
55317;BME280;41178;48.956;8.130;2023-03-16T09:27:44;100120.47;;;8.78;45.98
55317;BME280;41178;48.956;8.130;2023-03-16T09:32:45;100124.00;;;9.44;43.82
55317;BME280;41178;48.956;8.130;2023-03-16T09:37:49;100141.16;;;8.33;45.09
55317;BME280;41178;48.956;8.130;2023-03-16T09:48:27;100190.59;;;7.85;45.82
55317;BME280;41178;48.956;8.130;2023-03-16T09:53:36;100097.44;;;9.67;43.50
55317;BME280;41178;48.956;8.130;2023-03-16T09:58:39;100111.78;;;9.58;42.97
55317;BME280;41178;48.956;8.130;2023-03-16T10:09:24;100073.31;;;10.86;41.71
55317;BME280;41178;48.956;8.130;2023-03-16T10:19:56;100063.66;;;10.54;41.62
55317;BME280;41178;48.956;8.130;2023-03-16T10:35:52;100081.09;;;9.54;43.47
55317;BME280;41178;48.956;8.130;2023-03-16T10:40:56;100042.03;;;11.84;40.13
55317;BME280;41178;48.956;8.130;2023-03-16T10:46:01;100019.63;;;11.02;40.16
55317;BME280;41178;48.956;8.130;2023-03-16T10:51:07;100032.09;;;11.78;39.66
55317;BME280;41178;48.956;8.130;2023-03-16T10:56:21;100040.59;;;11.81;39.10
55317;BME280;41178;48.956;8.130;2023-03-16T11:06:32;100040.72;;;8.66;44.79
55317;BME280;41178;48.956;8.130;2023-03-16T11:11:36;100083.91;;;8.03;43.41
55317;BME280;41178;48.956;8.130;2023-03-16T11:16:45;99979.22;;;10.28;42.08
55317;BME280;41178;48.956;8.130;2023-03-16T11:21:56;100017.91;;;9.69;41.63
55317;BME280;41178;48.956;8.130;2023-03-16T11:27:03;99951.50;;;10.44;39.81
55317;BME280;41178;48.956;8.130;2023-03-16T11:32:17;99960.19;;;11.07;39.00
55317;BME280;41178;48.956;8.130;2023-03-16T12:03:45;100009.53;;;10.43;39.00
55317;BME280;41178;48.956;8.130;2023-03-16T12:14:26;99921.31;;;11.77;36.42
55317;BME280;41178;48.956;8.130;2023-03-16T12:24:43;99969.91;;;10.15;39.13
55317;BME280;41178;48.956;8.130;2023-03-16T12:29:57;99877.31;;;12.36;36.76
55317;BME280;41178;48.956;8.130;2023-03-16T12:50:47;99822.97;;;12.49;37.09
55317;BME280;41178;48.956;8.130;2023-03-16T12:55:50;99874.81;;;11.85;36.60
55317;BME280;41178;48.956;8.130;2023-03-16T13:00:57;99839.44;;;12.25;36.11
55317;BME280;41178;48.956;8.130;2023-03-16T13:06:00;99821.81;;;12.37;35.38
55317;BME280;41178;48.956;8.130;2023-03-16T13:11:09;99820.34;;;13.46;35.68
55317;BME280;41178;48.956;8.130;2023-03-16T13:16:23;99842.59;;;12.28;36.82
55317;BME280;41178;48.956;8.130;2023-03-16T13:21:37;99783.38;;;14.01;36.17
55317;BME280;41178;48.956;8.130;2023-03-16T13:26:46;99769.56;;;14.11;36.18
55317;BME280;41178;48.956;8.130;2023-03-16T13:31:50;99842.13;;;11.60;37.16
55317;BME280;41178;48.956;8.130;2023-03-16T13:36:55;99747.06;;;13.24;35.42
55317;BME280;41178;48.956;8.130;2023-03-16T13:42:17;99757.94;;;12.96;35.71
55317;BME280;41178;48.956;8.130;2023-03-16T13:47:19;99775.16;;;11.81;34.91
55317;BME280;41178;48.956;8.130;2023-03-16T13:52:29;99692.34;;;13.98;34.56
55317;BME280;41178;48.956;8.130;2023-03-16T13:57:35;99680.97;;;13.43;35.19
55317;BME280;41178;48.956;8.130;2023-03-16T14:02:42;99696.97;;;12.83;35.89
55317;BME280;41178;48.956;8.130;2023-03-16T14:07:49;99673.13;;;13.68;34.93
55317;BME280;41178;48.956;8.130;2023-03-16T14:12:56;99646.00;;;13.90;35.11
55317;BME280;41178;48.956;8.130;2023-03-16T14:18:15;99648.09;;;14.59;33.50
55317;BME280;41178;48.956;8.130;2023-03-16T14:23:30;99593.94;;;15.06;32.92
55317;BME280;41178;48.956;8.130;2023-03-16T14:28:33;99613.72;;;13.96;34.36
55317;BME280;41178;48.956;8.130;2023-03-16T14:33:38;99599.06;;;13.79;34.24
55317;BME280;41178;48.956;8.130;2023-03-16T14:38:46;99588.91;;;13.81;34.75
55317;BME280;41178;48.956;8.130;2023-03-16T14:43:56;99581.97;;;14.25;35.55
55317;BME280;41178;48.956;8.130;2023-03-16T14:54:18;99572.50;;;15.18;32.97
55317;BME280;41178;48.956;8.130;2023-03-16T14:59:22;99587.50;;;13.72;35.28
55317;BME280;41178;48.956;8.130;2023-03-16T15:04:28;99539.63;;;14.77;34.55
55317;BME280;41178;48.956;8.130;2023-03-16T15:09:39;99520.91;;;14.89;33.94
55317;BME280;41178;48.956;8.130;2023-03-16T15:14:44;99512.56;;;14.66;33.82
55317;BME280;41178;48.956;8.130;2023-03-16T15:20:05;99508.47;;;14.95;34.25
55317;BME280;41178;48.956;8.130;2023-03-16T15:30:22;99506.09;;;15.05;35.06
55317;BME280;41178;48.956;8.130;2023-03-16T15:35:24;99509.66;;;14.67;34.13
55317;BME280;41178;48.956;8.130;2023-03-16T15:40:50;99497.13;;;14.54;34.42
55317;BME280;41178;48.956;8.130;2023-03-16T15:46:17;99509.78;;;14.79;33.86
55317;BME280;41178;48.956;8.130;2023-03-16T21:13:30;99380.09;;;8.74;44.21
55317;BME280;41178;48.956;8.130;2023-03-16T21:18:32;99351.91;;;9.82;43.22
55317;BME280;41178;48.956;8.130;2023-03-16T21:23:34;99372.31;;;9.68;43.15
55317;BME280;41178;48.956;8.130;2023-03-16T21:28:36;99357.44;;;9.81;42.81
55317;BME280;41178;48.956;8.130;2023-03-16T21:33:39;99323.69;;;9.94;43.29
55317;BME280;41178;48.956;8.130;2023-03-16T21:38:43;99324.69;;;10.72;41.67
55317;BME280;41178;48.956;8.130;2023-03-16T21:43:45;99325.44;;;11.35;40.81
55317;BME280;41178;48.956;8.130;2023-03-16T21:48:49;99412.41;;;10.26;41.80
55317;BME280;41178;48.956;8.130;2023-03-16T21:53:52;99360.00;;;10.82;41.58
55317;BME280;41178;48.956;8.130;2023-03-16T21:58:53;99391.78;;;9.99;41.53
55317;BME280;41178;48.956;8.130;2023-03-16T22:04:00;99379.16;;;11.69;39.72
55317;BME280;41178;48.956;8.130;2023-03-16T22:09:03;99388.59;;;11.58;39.22
55317;BME280;41178;48.956;8.130;2023-03-16T22:14:04;99421.97;;;10.36;41.46
55317;BME280;41178;48.956;8.130;2023-03-16T22:19:13;99401.56;;;11.13;40.16
55317;BME280;41178;48.956;8.130;2023-03-16T22:24:18;99421.63;;;10.45;40.93
55317;BME280;41178;48.956;8.130;2023-03-16T22:29:29;99401.13;;;10.52;40.76
55317;BME280;41178;48.956;8.130;2023-03-16T22:34:40;99395.81;;;9.58;42.64
55317;BME280;41178;48.956;8.130;2023-03-16T22:39:43;99370.44;;;10.27;42.00
55317;BME280;41178;48.956;8.130;2023-03-16T22:44:45;99400.00;;;9.46;42.50
55317;BME280;41178;48.956;8.130;2023-03-16T22:49:47;99400.66;;;9.33;42.61
55317;BME280;41178;48.956;8.130;2023-03-16T22:54:48;99401.41;;;9.12;43.05
55317;BME280;41178;48.956;8.130;2023-03-16T22:59:51;99396.53;;;9.15;43.17
55317;BME280;41178;48.956;8.130;2023-03-16T23:04:53;99375.94;;;8.71;44.23
55317;BME280;41178;48.956;8.130;2023-03-16T23:09:56;99350.03;;;8.27;44.88
55317;BME280;41178;48.956;8.130;2023-03-16T23:14:58;99347.69;;;8.62;44.52
55317;BME280;41178;48.956;8.130;2023-03-16T23:19:59;99372.63;;;8.84;43.60
55317;BME280;41178;48.956;8.130;2023-03-16T23:25:01;99353.00;;;9.00;43.33
55317;BME280;41178;48.956;8.130;2023-03-16T23:30:13;99256.72;;;11.96;39.37
55317;BME280;41178;48.956;8.130;2023-03-16T23:35:23;99269.00;;;9.54;41.61
55317;BME280;41178;48.956;8.130;2023-03-16T23:40:26;99339.88;;;8.45;43.40
55317;BME280;41178;48.956;8.130;2023-03-16T23:45:41;99365.09;;;8.58;44.17
55317;BME280;41178;48.956;8.130;2023-03-16T23:50:48;99325.19;;;7.57;45.24
55317;BME280;41178;48.956;8.130;2023-03-16T23:55:52;99353.78;;;8.56;44.22
